createdAt,value
2023-02-06T00:02:05.624Z,20.70
2023-02-06T00:04:33.362Z,19.63
2023-02-06T00:07:05.320Z,22.70
2023-02-06T00:09:33.194Z,21.53
2023-02-06T00:12:02.168Z,19.30
2023-02-06T00:14:31.457Z,21.03
2023-02-06T00:17:05.548Z,18.17
2023-02-06T00:19:33.337Z,19.33
2023-02-06T00:22:01.140Z,17.57
2023-02-06T00:24:29.066Z,20.57
2023-02-06T00:26:57.536Z,21.43
2023-02-06T00:29:25.991Z,23.03
2023-02-06T00:31:55.185Z,17.23
2023-02-06T00:34:22.999Z,20.40
2023-02-06T00:36:54.037Z,12.83
2023-02-06T00:39:22.046Z,14.57
2023-02-06T00:41:50.199Z,19.27
2023-02-06T00:44:19.451Z,17.80
2023-02-06T00:46:47.316Z,21.87
2023-02-06T00:49:16.806Z,17.67
2023-02-06T00:51:46.912Z,17.50
2023-02-06T00:54:16.124Z,21.20
2023-02-06T00:56:43.904Z,19.37
2023-02-06T00:59:11.652Z,22.77
2023-02-06T01:01:40.599Z,18.80
2023-02-06T01:04:08.341Z,14.63
2023-02-06T01:06:40.058Z,16.40
2023-02-06T01:09:08.089Z,13.53
2023-02-06T01:11:36.668Z,17.77
2023-02-06T01:14:04.713Z,12.57
2023-02-06T01:16:32.636Z,19.80
2023-02-06T01:19:00.431Z,16.93
2023-02-06T01:21:28.259Z,14.37
2023-02-06T01:23:57.409Z,15.77
2023-02-06T01:26:27.812Z,12.40
2023-02-06T01:28:56.528Z,15.17
2023-02-06T01:31:26.664Z,16.07
2023-02-06T01:33:54.843Z,18.03
2023-02-06T01:36:22.896Z,18.07
2023-02-06T01:38:51.213Z,13.13
2023-02-06T01:41:23.023Z,18.20
2023-02-06T01:44:11.012Z,19.60
2023-02-06T01:46:39.323Z,17.57
2023-02-06T01:49:09.692Z,17.47
2023-02-06T01:51:37.512Z,17.83
2023-02-06T01:54:07.429Z,18.83
2023-02-06T01:56:42.297Z,24.03
2023-02-06T01:59:10.552Z,19.43
2023-02-06T02:01:39.696Z,13.83
2023-02-06T02:04:11.768Z,14.40
2023-02-06T02:06:41.518Z,19.67
2023-02-06T02:09:09.968Z,13.67
2023-02-06T02:11:41.790Z,14.33
2023-02-06T02:14:12.804Z,16.43
2023-02-06T02:16:49.899Z,22.93
2023-02-06T02:19:54.105Z,14.23
2023-02-06T02:22:50.061Z,20.80
2023-02-06T02:25:54.343Z,17.63
2023-02-06T02:29:02.294Z,17.90
2023-02-06T02:31:52.254Z,20.77
2023-02-06T02:34:57.920Z,20.93
2023-02-06T02:37:35.969Z,20.00
2023-02-06T02:40:08.921Z,20.17
2023-02-06T02:42:44.424Z,18.53
2023-02-06T02:45:20.352Z,19.13
2023-02-06T02:47:56.799Z,15.30
2023-02-06T02:50:27.411Z,15.73
2023-02-06T02:52:55.258Z,17.63
2023-02-06T02:55:24.329Z,17.97
2023-02-06T02:58:04.652Z,14.33
2023-02-06T03:00:35.848Z,15.30
2023-02-06T03:03:08.160Z,15.87
2023-02-06T03:05:43.634Z,11.63
2023-02-06T03:08:18.674Z,18.57
2023-02-06T03:10:59.944Z,16.00
2023-02-06T03:13:35.474Z,18.70
2023-02-06T03:16:09.063Z,15.60
2023-02-06T03:18:43.757Z,12.53
2023-02-06T03:21:16.405Z,21.37
2023-02-06T03:23:46.893Z,22.00
2023-02-06T03:26:18.325Z,19.37
2023-02-06T03:28:50.060Z,24.77
2023-02-06T03:31:24.468Z,20.23
2023-02-06T03:33:57.467Z,21.13
2023-02-06T03:36:26.680Z,13.40
2023-02-06T03:38:54.719Z,13.73
2023-02-06T03:41:26.634Z,17.07
2023-02-06T03:43:55.126Z,19.10
2023-02-06T03:46:25.275Z,12.43
2023-02-06T03:48:58.156Z,15.00
2023-02-06T03:51:32.100Z,18.63
2023-02-06T03:54:03.601Z,18.87
2023-02-06T03:56:36.216Z,19.43
2023-02-06T03:59:04.165Z,16.03
2023-02-06T04:01:32.223Z,18.53
2023-02-06T04:04:00.248Z,19.57
2023-02-06T04:06:29.352Z,19.77
2023-02-06T04:08:57.195Z,19.37
2023-02-06T04:11:24.947Z,17.37
2023-02-06T04:13:52.786Z,16.40
2023-02-06T04:16:20.539Z,17.13
2023-02-06T04:18:48.257Z,19.53
2023-02-06T04:21:16.001Z,17.63
2023-02-06T04:23:45.150Z,16.10
2023-02-06T04:26:12.924Z,15.30
2023-02-06T04:28:40.705Z,13.07
2023-02-06T04:31:08.540Z,13.77
2023-02-06T04:33:36.398Z,17.00
2023-02-06T04:36:04.486Z,17.60
2023-02-06T04:38:32.290Z,19.47
2023-02-06T04:41:04.800Z,17.60
2023-02-06T04:43:32.890Z,16.53
2023-02-06T04:46:01.024Z,15.90
2023-02-06T04:48:28.792Z,20.20
2023-02-06T04:50:56.544Z,16.27
2023-02-06T04:53:24.290Z,21.67
2023-02-06T04:55:52.056Z,22.87
2023-02-06T04:58:21.165Z,20.30
2023-02-06T05:00:48.864Z,21.43
2023-02-06T05:03:16.660Z,20.50
2023-02-06T05:05:44.401Z,29.03
2023-02-06T05:08:12.163Z,24.97
2023-02-06T05:10:39.903Z,20.27
2023-02-06T05:13:08.033Z,17.43
2023-02-06T05:15:38.327Z,21.67
2023-02-06T05:18:07.174Z,19.93
2023-02-06T05:20:35.249Z,17.13
2023-02-06T05:23:03.078Z,21.33
2023-02-06T05:25:31.103Z,16.70
2023-02-06T05:27:58.931Z,23.20
2023-02-06T05:30:26.739Z,18.87
2023-02-06T05:32:57.857Z,22.00
2023-02-06T05:35:25.910Z,25.13
2023-02-06T05:37:53.613Z,25.13
2023-02-06T05:40:21.557Z,24.23
2023-02-06T05:42:49.338Z,28.03
2023-02-06T05:45:17.204Z,21.47
2023-02-06T05:47:44.973Z,20.53
2023-02-06T05:50:14.042Z,26.63
2023-02-06T05:52:42.179Z,23.97
2023-02-06T05:55:10.385Z,27.07
2023-02-06T05:57:38.257Z,22.50
2023-02-06T06:00:07.478Z,17.87
2023-02-06T06:02:41.171Z,22.43
2023-02-06T06:05:09.463Z,24.17
2023-02-06T06:07:38.638Z,25.23
2023-02-06T06:10:07.467Z,25.37
2023-02-06T06:12:35.260Z,25.57
2023-02-06T06:15:03.042Z,23.63
2023-02-06T06:17:30.758Z,22.27
2023-02-06T06:19:58.572Z,21.00
2023-02-06T06:22:26.292Z,26.80
2023-02-06T06:24:55.404Z,28.80
2023-02-06T06:27:23.379Z,22.43
2023-02-06T06:29:51.140Z,20.23
2023-02-06T06:32:19.749Z,28.80
2023-02-06T06:34:47.449Z,29.17
2023-02-06T06:37:15.255Z,25.90
2023-02-06T06:39:43.073Z,25.77
2023-02-06T06:42:12.200Z,27.87
2023-02-06T06:44:40.030Z,27.40
2023-02-06T06:47:07.873Z,27.93
2023-02-06T06:49:35.665Z,21.87
2023-02-06T06:52:04.485Z,30.03
2023-02-06T06:54:34.669Z,26.50
2023-02-06T06:57:02.442Z,31.37
2023-02-06T06:59:31.526Z,27.13
2023-02-06T07:01:59.261Z,28.17
2023-02-06T07:04:30.387Z,28.07
2023-02-06T07:06:58.098Z,25.40
2023-02-06T07:09:25.937Z,31.30
2023-02-06T07:11:53.690Z,22.53
2023-02-06T07:14:21.416Z,24.03
2023-02-06T07:16:50.557Z,33.37
2023-02-06T07:19:18.895Z,28.53
2023-02-06T07:21:46.736Z,22.57
2023-02-06T07:24:14.448Z,21.13
2023-02-06T07:26:43.243Z,20.27
2023-02-06T07:29:11.112Z,37.07
2023-02-06T07:31:38.995Z,28.80
2023-02-06T07:34:08.172Z,26.63
2023-02-06T07:36:35.860Z,25.27
2023-02-06T07:39:04.317Z,22.10
2023-02-06T07:41:32.049Z,23.77
2023-02-06T07:43:59.834Z,25.33
2023-02-06T07:46:28.225Z,29.13
2023-02-06T07:48:56.047Z,33.70
2023-02-06T07:51:25.170Z,33.57
2023-02-06T07:53:52.880Z,27.20
2023-02-06T07:56:23.278Z,29.97
2023-02-06T07:58:52.385Z,32.03
2023-02-06T08:01:20.772Z,38.83
2023-02-06T08:03:50.669Z,29.87
2023-02-06T08:06:19.277Z,28.77
2023-02-06T08:08:49.096Z,21.03
2023-02-06T08:11:18.553Z,25.33
2023-02-06T08:13:46.813Z,23.40
2023-02-06T08:16:17.251Z,26.33
2023-02-06T08:18:45.548Z,25.53
2023-02-06T08:21:15.662Z,29.97
2023-02-06T08:23:44.009Z,33.53
2023-02-06T08:26:15.852Z,31.77
2023-02-06T08:28:44.193Z,37.80
2023-02-06T08:31:13.637Z,25.33
2023-02-06T08:33:41.628Z,28.20
2023-02-06T08:36:10.608Z,33.53
2023-02-06T08:38:38.499Z,28.20
2023-02-06T08:41:06.998Z,25.90
2023-02-06T08:43:36.105Z,20.00
2023-02-06T08:46:03.881Z,31.27
2023-02-06T08:48:31.803Z,25.83
2023-02-06T08:51:03.717Z,34.47
2023-02-06T08:53:31.402Z,32.93
2023-02-06T08:56:00.088Z,32.23
2023-02-06T08:58:27.949Z,34.93
2023-02-06T09:00:57.441Z,38.57
2023-02-06T09:03:27.083Z,33.30
2023-02-06T09:06:09.446Z,28.73
2023-02-06T09:08:38.555Z,46.43
2023-02-06T09:11:07.567Z,39.70
2023-02-06T09:13:35.461Z,37.90
2023-02-06T09:16:05.618Z,36.30
2023-02-06T09:18:33.498Z,41.77
2023-02-06T09:21:06.604Z,45.23
2023-02-06T09:23:34.373Z,43.33
2023-02-06T09:26:02.169Z,42.57
2023-02-06T09:28:30.122Z,35.37
2023-02-06T09:30:57.985Z,33.47
2023-02-06T09:33:27.429Z,38.43
2023-02-06T09:36:05.588Z,33.80
2023-02-06T09:38:33.764Z,27.23
2023-02-06T09:41:04.829Z,29.20
2023-02-06T09:43:34.623Z,25.07
2023-02-06T09:46:06.039Z,33.20
2023-02-06T09:48:39.425Z,31.37
2023-02-06T09:51:14.079Z,39.63
2023-02-06T09:53:52.099Z,34.60
2023-02-06T09:56:30.897Z,25.50
2023-02-06T09:59:05.844Z,27.17
2023-02-06T10:01:39.671Z,32.47
2023-02-06T10:04:38.896Z,33.27
2023-02-06T10:07:18.894Z,32.53
2023-02-06T10:09:51.015Z,28.77
2023-02-06T10:12:23.352Z,30.10
2023-02-06T10:14:55.755Z,33.60
2023-02-06T10:17:26.882Z,28.20
2023-02-06T10:20:01.959Z,38.90
2023-02-06T10:22:36.804Z,25.27
2023-02-06T10:25:21.026Z,26.90
2023-02-06T10:27:56.149Z,27.90
2023-02-06T10:30:35.200Z,34.90
2023-02-06T10:33:23.870Z,30.53
2023-02-06T10:36:02.604Z,28.30
2023-02-06T10:38:52.407Z,32.37
2023-02-06T10:41:29.546Z,31.70
2023-02-06T10:44:06.002Z,26.93
2023-02-06T10:46:43.959Z,31.17
2023-02-06T10:49:19.558Z,26.53
2023-02-06T10:51:52.875Z,29.03
2023-02-06T10:54:25.424Z,30.43
2023-02-06T10:56:56.657Z,26.13
2023-02-06T10:59:30.041Z,26.03
2023-02-06T11:02:06.683Z,29.43
2023-02-06T11:04:38.831Z,28.33
2023-02-06T11:07:18.603Z,26.23
2023-02-06T11:09:46.380Z,29.60
2023-02-06T11:12:24.908Z,28.37
2023-02-06T11:14:55.849Z,33.20
2023-02-06T11:17:28.167Z,30.10
2023-02-06T11:20:05.289Z,29.00
2023-02-06T11:22:44.280Z,31.17
2023-02-06T11:25:24.478Z,28.13
2023-02-06T11:27:52.712Z,33.47
2023-02-06T11:30:33.514Z,31.10
2023-02-06T11:33:07.528Z,33.63
2023-02-06T11:35:48.376Z,25.93
2023-02-06T11:38:20.758Z,26.27
2023-02-06T11:40:57.300Z,25.80
2023-02-06T11:43:26.430Z,26.43
2023-02-06T11:46:15.148Z,25.43
2023-02-06T11:48:45.317Z,26.77
2023-02-06T11:51:16.829Z,27.47
2023-02-06T11:54:02.776Z,27.60
2023-02-06T11:56:32.645Z,21.73
2023-02-06T11:59:10.636Z,20.50
2023-02-06T12:01:44.608Z,24.33
2023-02-06T12:04:23.662Z,33.03
2023-02-06T12:06:55.675Z,27.53
2023-02-06T12:09:24.806Z,27.30
2023-02-06T12:11:58.143Z,18.77
2023-02-06T12:14:32.732Z,21.37
2023-02-06T12:17:03.740Z,20.77
2023-02-06T12:19:36.837Z,28.63
2023-02-06T12:22:13.387Z,22.83
2023-02-06T12:24:46.343Z,26.83
2023-02-06T12:27:18.881Z,27.30
2023-02-06T12:29:54.398Z,23.47
2023-02-06T12:32:29.447Z,28.53
2023-02-06T12:35:01.320Z,26.90
2023-02-06T12:37:39.539Z,27.43
2023-02-06T12:40:20.080Z,23.47
2023-02-06T12:42:56.176Z,26.10
2023-02-06T12:45:34.115Z,23.13
2023-02-06T12:48:12.374Z,25.63
2023-02-06T12:50:43.779Z,26.07
2023-02-06T12:53:17.321Z,22.77
2023-02-06T12:55:53.999Z,24.30
2023-02-06T12:58:26.043Z,28.67
2023-02-06T13:01:29.241Z,25.97
2023-02-06T13:04:01.607Z,25.50
2023-02-06T13:06:32.200Z,24.77
2023-02-06T13:09:06.378Z,28.03
2023-02-06T13:11:38.955Z,21.97
2023-02-06T13:14:16.101Z,23.17
2023-02-06T13:16:46.757Z,22.87
2023-02-06T13:19:28.663Z,18.87
2023-02-06T13:22:33.419Z,19.30
2023-02-06T13:25:03.251Z,21.03
2023-02-06T13:27:39.955Z,22.60
2023-02-06T13:30:47.491Z,27.67
2023-02-06T13:33:17.138Z,20.07
2023-02-06T13:35:58.473Z,18.83
2023-02-06T13:38:29.922Z,17.27
2023-02-06T13:41:34.251Z,18.87
2023-02-06T13:44:06.720Z,19.13
2023-02-06T13:47:08.010Z,17.57
2023-02-06T13:49:57.464Z,22.43
2023-02-06T13:52:34.098Z,19.77
2023-02-06T13:55:19.441Z,22.30
2023-02-06T13:58:20.557Z,22.07
2023-02-06T14:00:52.219Z,18.93
2023-02-06T14:03:24.878Z,19.83
2023-02-06T14:06:00.782Z,22.23
2023-02-06T14:08:37.192Z,16.20
2023-02-06T14:11:17.170Z,15.27
2023-02-06T14:13:59.738Z,11.53
2023-02-06T14:16:43.135Z,16.00
2023-02-06T14:19:21.040Z,19.67
2023-02-06T14:21:58.901Z,17.50
2023-02-06T14:24:40.420Z,14.63
2023-02-06T14:27:23.419Z,15.67
2023-02-06T14:30:03.582Z,15.03
2023-02-06T14:32:41.343Z,12.53
2023-02-06T14:35:41.519Z,17.13
2023-02-06T14:38:34.385Z,13.00
2023-02-06T14:41:04.093Z,19.90
2023-02-06T14:43:46.840Z,11.47
2023-02-06T14:46:17.905Z,15.13
2023-02-06T14:48:51.786Z,16.43
2023-02-06T14:51:24.803Z,14.87
2023-02-06T14:53:56.097Z,12.90
2023-02-06T14:56:30.112Z,16.87
2023-02-06T14:59:08.270Z,22.70
2023-02-06T15:01:36.319Z,13.87
2023-02-06T15:04:15.465Z,12.97
2023-02-06T15:06:45.029Z,19.57
2023-02-06T15:09:27.802Z,16.93
2023-02-06T15:11:57.680Z,17.90
2023-02-06T15:14:27.626Z,16.07
2023-02-06T15:16:59.680Z,17.70
2023-02-06T15:19:30.850Z,17.97
2023-02-06T15:22:10.791Z,14.33
2023-02-06T15:24:55.659Z,20.40
2023-02-06T15:27:31.082Z,16.03
2023-02-06T15:30:00.302Z,20.20
2023-02-06T15:32:30.242Z,17.93
2023-02-06T15:35:02.220Z,14.73
2023-02-06T15:37:32.726Z,17.10
2023-02-06T15:40:05.760Z,14.00
2023-02-06T15:42:33.795Z,13.60
2023-02-06T15:45:02.081Z,13.07
2023-02-06T15:47:30.706Z,11.83
2023-02-06T15:50:00.589Z,12.13
2023-02-06T15:52:37.307Z,12.83
2023-02-06T15:55:05.840Z,13.03
2023-02-06T15:57:36.501Z,11.33
2023-02-06T16:00:09.512Z,10.97
2023-02-06T16:02:40.895Z,13.43
2023-02-06T16:05:26.171Z,10.47
2023-02-06T16:07:54.795Z,9.83
2023-02-06T16:10:26.518Z,13.30
2023-02-06T16:12:55.818Z,8.60
2023-02-06T16:15:30.087Z,10.67
2023-02-06T16:18:00.448Z,14.17
2023-02-06T16:20:37.002Z,10.83
2023-02-06T16:23:29.883Z,14.63
2023-02-06T16:26:03.562Z,13.97
2023-02-06T16:28:31.418Z,17.00
2023-02-06T16:31:02.045Z,14.63
2023-02-06T16:33:38.154Z,22.27
2023-02-06T16:36:08.541Z,14.00
2023-02-06T16:38:36.266Z,12.13
2023-02-06T16:41:04.325Z,12.77
2023-02-06T16:43:32.511Z,13.80
2023-02-06T16:46:02.262Z,18.03
2023-02-06T16:48:30.194Z,15.43
2023-02-06T16:50:58.057Z,16.87
2023-02-06T16:53:27.276Z,12.73
2023-02-06T16:55:55.084Z,15.27
2023-02-06T16:58:27.058Z,13.20
2023-02-06T17:00:54.891Z,13.13
2023-02-06T17:03:22.680Z,13.53
2023-02-06T17:05:53.034Z,13.90
2023-02-06T17:08:23.907Z,15.63
2023-02-06T17:10:53.512Z,11.10
2023-02-06T17:13:23.546Z,12.53
2023-02-06T17:15:53.379Z,15.83
2023-02-06T17:18:22.640Z,15.37
2023-02-06T17:20:52.837Z,14.43
2023-02-06T17:23:21.343Z,13.03
2023-02-06T17:25:49.952Z,23.03
2023-02-06T17:28:21.139Z,16.20
2023-02-06T17:30:50.803Z,14.73
2023-02-06T17:33:18.864Z,18.63
2023-02-06T17:35:48.292Z,14.33
2023-02-06T17:38:16.215Z,16.47
2023-02-06T17:40:44.177Z,15.33
2023-02-06T17:43:12.133Z,14.97
2023-02-06T17:45:41.834Z,14.73
2023-02-06T17:48:10.213Z,13.40
2023-02-06T17:50:38.758Z,14.67
2023-02-06T17:53:07.102Z,11.47
2023-02-06T17:55:36.237Z,12.00
2023-02-06T17:58:04.432Z,12.30
2023-02-06T18:00:32.485Z,18.40
2023-02-06T18:03:01.779Z,14.27
2023-02-06T18:05:29.681Z,12.63
2023-02-06T18:07:57.564Z,12.57
2023-02-06T18:10:26.717Z,15.40
2023-02-06T18:12:54.526Z,14.90
2023-02-06T18:15:24.578Z,20.07
2023-02-06T18:17:54.841Z,11.37
2023-02-06T18:20:24.262Z,15.33
2023-02-06T18:22:52.438Z,11.60
2023-02-06T18:25:20.243Z,13.90
2023-02-06T18:27:48.131Z,13.73
2023-02-06T18:30:17.315Z,17.57
2023-02-06T18:32:45.104Z,13.73
2023-02-06T18:35:14.860Z,15.80
2023-02-06T18:37:44.253Z,14.47
2023-02-06T18:40:12.896Z,17.10
2023-02-06T18:42:55.623Z,15.33
2023-02-06T18:45:25.576Z,17.03
2023-02-06T18:47:53.408Z,23.30
2023-02-06T18:50:22.171Z,18.53
2023-02-06T18:52:51.693Z,16.77
2023-02-06T18:55:19.825Z,18.33
2023-02-06T18:57:47.924Z,16.60
2023-02-06T19:00:17.828Z,16.60
2023-02-06T19:02:45.819Z,16.60
2023-02-06T19:05:16.300Z,16.57
2023-02-06T19:07:44.063Z,14.13
2023-02-06T19:10:16.143Z,11.07
2023-02-06T19:12:46.617Z,14.47
2023-02-06T19:15:17.791Z,11.10
2023-02-06T19:17:49.558Z,10.87
2023-02-06T19:20:18.609Z,11.03
2023-02-06T19:22:53.099Z,9.43
2023-02-06T19:25:25.199Z,12.27
2023-02-06T19:27:56.839Z,11.50
2023-02-06T19:30:24.658Z,8.63
2023-02-06T19:32:52.535Z,6.13
2023-02-06T19:35:20.399Z,12.03
2023-02-06T19:37:48.289Z,11.30
2023-02-06T19:40:16.216Z,10.47
2023-02-06T19:42:45.395Z,10.63
2023-02-06T19:45:13.255Z,11.03
2023-02-06T19:47:41.037Z,11.93
2023-02-06T19:50:09.462Z,6.73
2023-02-06T19:52:57.012Z,10.00
2023-02-06T19:55:24.864Z,12.97
2023-02-06T19:57:54.059Z,8.77
2023-02-06T20:00:22.268Z,14.80
2023-02-06T20:02:50.124Z,10.47
2023-02-06T20:05:20.289Z,9.17
2023-02-06T20:07:48.188Z,8.77
2023-02-06T20:10:16.093Z,10.63
2023-02-06T20:12:44.182Z,12.77
2023-02-06T20:15:14.169Z,9.40
2023-02-06T20:17:42.194Z,12.20
2023-02-06T20:20:11.226Z,8.97
2023-02-06T20:22:39.921Z,9.30
2023-02-06T20:25:08.608Z,10.63
2023-02-06T20:27:36.390Z,8.83
2023-02-06T20:30:04.847Z,12.47
2023-02-06T20:32:33.937Z,9.00
2023-02-06T20:35:01.755Z,11.43
2023-02-06T20:37:29.834Z,12.17
2023-02-06T20:39:57.737Z,13.93
2023-02-06T20:42:27.297Z,11.70
2023-02-06T20:44:56.070Z,14.57
2023-02-06T20:47:23.889Z,13.23
2023-02-06T20:49:52.992Z,11.80
2023-02-06T20:52:21.790Z,15.33
2023-02-06T20:54:49.647Z,13.03
2023-02-06T20:57:17.455Z,10.63
2023-02-06T20:59:45.314Z,11.37
2023-02-06T21:02:13.202Z,12.47
2023-02-06T21:04:41.164Z,12.43
2023-02-06T21:07:10.370Z,9.53
2023-02-06T21:09:38.149Z,13.37
2023-02-06T21:12:06.110Z,12.00
2023-02-06T21:14:33.943Z,13.37
2023-02-06T21:17:01.757Z,11.17
2023-02-06T21:19:29.511Z,13.87
2023-02-06T21:21:57.577Z,10.33
2023-02-06T21:24:26.761Z,11.70
2023-02-06T21:26:54.738Z,13.40
2023-02-06T21:29:22.946Z,9.90
2023-02-06T21:32:12.515Z,12.40
2023-02-06T21:34:52.563Z,12.77
2023-02-06T21:37:22.571Z,10.80
2023-02-06T21:39:54.841Z,12.27
2023-02-06T21:42:26.205Z,11.30
2023-02-06T21:44:54.389Z,11.63
2023-02-06T21:47:22.315Z,13.87
2023-02-06T21:49:50.114Z,12.40
2023-02-06T21:52:17.976Z,10.60
2023-02-06T21:54:47.884Z,15.20
2023-02-06T21:57:17.042Z,14.03
2023-02-06T21:59:52.112Z,12.10
2023-02-06T22:02:22.557Z,14.63
2023-02-06T22:04:51.009Z,10.93
2023-02-06T22:07:19.752Z,12.30
2023-02-06T22:09:47.504Z,13.00
2023-02-06T22:12:15.447Z,13.50
2023-02-06T22:14:44.747Z,12.43
2023-02-06T22:17:12.512Z,12.33
2023-02-06T22:19:43.438Z,11.97
2023-02-06T22:22:12.581Z,12.90
2023-02-06T22:24:40.388Z,11.67
2023-02-06T22:27:08.470Z,12.10
2023-02-06T22:29:43.478Z,11.37
2023-02-06T22:32:12.738Z,15.90
2023-02-06T22:34:40.566Z,13.07
2023-02-06T22:37:08.349Z,11.43
2023-02-06T22:39:36.150Z,11.17
2023-02-06T22:42:08.604Z,17.60
2023-02-06T22:44:36.366Z,14.43
2023-02-06T22:47:04.613Z,15.27
2023-02-06T22:49:33.788Z,15.60
2023-02-06T22:52:01.625Z,15.33
2023-02-06T22:54:29.492Z,10.17
2023-02-06T22:56:57.839Z,14.33
2023-02-06T22:59:26.705Z,12.73
2023-02-06T23:01:57.759Z,13.03
2023-02-06T23:04:28.343Z,13.37
2023-02-06T23:06:58.203Z,14.87
2023-02-06T23:09:34.448Z,11.57
2023-02-06T23:12:06.653Z,12.10
2023-02-06T23:14:34.789Z,12.67
2023-02-06T23:17:04.184Z,14.87
2023-02-06T23:19:32.431Z,13.90
2023-02-06T23:22:02.940Z,11.97
2023-02-06T23:24:33.681Z,11.43
2023-02-06T23:27:03.639Z,13.57
2023-02-06T23:29:36.862Z,13.43
2023-02-06T23:32:05.484Z,12.20
2023-02-06T23:34:33.256Z,14.33
2023-02-06T23:37:02.438Z,14.27
2023-02-06T23:39:36.624Z,12.37
2023-02-06T23:42:04.685Z,13.80
2023-02-06T23:44:32.774Z,17.53
2023-02-06T23:47:00.556Z,15.70
2023-02-06T23:49:28.409Z,17.07
2023-02-06T23:51:56.220Z,18.03
2023-02-06T23:54:27.976Z,14.47
2023-02-06T23:56:55.777Z,13.03
2023-02-06T23:59:23.711Z,12.17
